sensor_id;sensor_type;location;lat;lon;timestamp;pressure;altitude;pressure_sealevel;temperature;humidity
63351;BME280;64988;51.058;17.040;2022-12-10T00:00:55;99124.03;;;2.98;78.66
63351;BME280;64988;51.058;17.040;2022-12-10T00:06:55;99121.06;;;3.03;78.71
63351;BME280;64988;51.058;17.040;2022-12-10T00:12:48;99112.31;;;3.01;78.79
63351;BME280;64988;51.058;17.040;2022-12-10T00:18:41;99109.59;;;2.88;78.66
63351;BME280;64988;51.058;17.040;2022-12-10T00:24:34;99108.66;;;2.89;78.83
63351;BME280;64988;51.058;17.040;2022-12-10T00:30:26;99108.38;;;2.94;78.65
63351;BME280;64988;51.058;17.040;2022-12-10T00:36:27;99111.25;;;2.91;78.69
63351;BME280;64988;51.058;17.040;2022-12-10T00:42:20;99101.81;;;2.85;78.65
63351;BME280;64988;51.058;17.040;2022-12-10T00:48:13;99102.88;;;2.83;79.05
63351;BME280;64988;51.058;17.040;2022-12-10T00:54:07;99107.56;;;2.79;79.40
63351;BME280;64988;51.058;17.040;2022-12-10T01:00:00;99114.59;;;2.80;78.70
63351;BME280;64988;51.058;17.040;2022-12-10T01:05:54;99108.50;;;2.78;79.10
63351;BME280;64988;51.058;17.040;2022-12-10T01:11:48;99112.06;;;2.91;78.44
63351;BME280;64988;51.058;17.040;2022-12-10T01:17:41;99117.59;;;2.88;78.42
63351;BME280;64988;51.058;17.040;2022-12-10T01:23:35;99132.22;;;2.95;78.26
63351;BME280;64988;51.058;17.040;2022-12-10T01:29:29;99127.84;;;2.94;78.43
63351;BME280;64988;51.058;17.040;2022-12-10T01:35:21;99122.13;;;3.00;77.81
63351;BME280;64988;51.058;17.040;2022-12-10T01:41:17;99129.38;;;2.98;77.88
63351;BME280;64988;51.058;17.040;2022-12-10T01:47:10;99132.59;;;3.03;77.77
63351;BME280;64988;51.058;17.040;2022-12-10T01:53:03;99123.16;;;2.98;78.17
63351;BME280;64988;51.058;17.040;2022-12-10T01:58:56;99119.47;;;3.00;78.39
63351;BME280;64988;51.058;17.040;2022-12-10T02:11:31;99117.97;;;2.96;78.40
63351;BME280;64988;51.058;17.040;2022-12-10T02:17:36;99119.84;;;2.94;77.84
63351;BME280;64988;51.058;17.040;2022-12-10T02:23:37;99115.91;;;2.87;77.87
63351;BME280;64988;51.058;17.040;2022-12-10T02:29:32;99119.56;;;2.99;78.21
63351;BME280;64988;51.058;17.040;2022-12-10T02:35:27;99125.34;;;3.05;77.49
63351;BME280;64988;51.058;17.040;2022-12-10T02:41:27;99136.09;;;3.04;77.57
63351;BME280;64988;51.058;17.040;2022-12-10T02:47:23;99136.00;;;3.05;77.81
63351;BME280;64988;51.058;17.040;2022-12-10T02:53:18;99136.81;;;2.93;78.18
63351;BME280;64988;51.058;17.040;2022-12-10T02:59:51;99139.81;;;3.01;77.98
63351;BME280;64988;51.058;17.040;2022-12-10T03:11:41;99135.72;;;2.83;78.92
63351;BME280;64988;51.058;17.040;2022-12-10T03:17:38;99157.22;;;2.80;79.24
63351;BME280;64988;51.058;17.040;2022-12-10T03:23:33;99141.94;;;2.96;78.48
63351;BME280;64988;51.058;17.040;2022-12-10T03:29:31;99152.94;;;3.04;78.02
63351;BME280;64988;51.058;17.040;2022-12-10T03:35:25;99156.78;;;3.00;77.98
63351;BME280;64988;51.058;17.040;2022-12-10T03:41:18;99154.81;;;2.90;78.23
63351;BME280;64988;51.058;17.040;2022-12-10T03:47:14;99151.22;;;2.91;78.27
63351;BME280;64988;51.058;17.040;2022-12-10T03:53:06;99148.84;;;2.86;77.87
63351;BME280;64988;51.058;17.040;2022-12-10T03:58:59;99145.88;;;2.91;77.96
63351;BME280;64988;51.058;17.040;2022-12-10T04:04:51;99161.50;;;2.83;77.48
63351;BME280;64988;51.058;17.040;2022-12-10T04:10:43;99163.47;;;2.93;77.39
63351;BME280;64988;51.058;17.040;2022-12-10T04:16:36;99171.75;;;2.89;77.22
63351;BME280;64988;51.058;17.040;2022-12-10T04:22:29;99170.91;;;2.88;77.56
63351;BME280;64988;51.058;17.040;2022-12-10T04:28:40;99175.91;;;2.66;77.50
63351;BME280;64988;51.058;17.040;2022-12-10T04:34:33;99174.38;;;2.62;77.21
63351;BME280;64988;51.058;17.040;2022-12-10T04:40:25;99173.22;;;2.80;77.32
63351;BME280;64988;51.058;17.040;2022-12-10T04:46:18;99172.06;;;2.84;76.21
63351;BME280;64988;51.058;17.040;2022-12-10T04:52:13;99189.59;;;2.74;76.59
63351;BME280;64988;51.058;17.040;2022-12-10T04:58:06;99193.47;;;2.83;76.19
63351;BME280;64988;51.058;17.040;2022-12-10T05:04:00;99185.06;;;2.89;76.19
63351;BME280;64988;51.058;17.040;2022-12-10T05:09:53;99183.31;;;2.75;75.79
63351;BME280;64988;51.058;17.040;2022-12-10T05:15:46;99198.06;;;2.81;76.46
63351;BME280;64988;51.058;17.040;2022-12-10T05:21:39;99202.41;;;2.82;76.18
63351;BME280;64988;51.058;17.040;2022-12-10T05:27:51;99200.94;;;2.78;76.05
63351;BME280;64988;51.058;17.040;2022-12-10T05:33:44;99199.09;;;2.78;76.29
63351;BME280;64988;51.058;17.040;2022-12-10T05:39:38;99204.06;;;2.70;75.92
63351;BME280;64988;51.058;17.040;2022-12-10T05:45:33;99204.72;;;2.74;76.00
63351;BME280;64988;51.058;17.040;2022-12-10T05:51:29;99201.59;;;2.67;76.26
63351;BME280;64988;51.058;17.040;2022-12-10T05:57:22;99205.59;;;2.60;76.11
63351;BME280;64988;51.058;17.040;2022-12-10T06:03:14;99213.22;;;2.66;75.98
63351;BME280;64988;51.058;17.040;2022-12-10T06:09:11;99206.34;;;2.62;75.67
63351;BME280;64988;51.058;17.040;2022-12-10T06:15:05;99197.53;;;2.61;76.17
63351;BME280;64988;51.058;17.040;2022-12-10T06:20:58;99205.72;;;2.44;76.88
63351;BME280;64988;51.058;17.040;2022-12-10T06:26:50;99204.75;;;2.59;77.32
63351;BME280;64988;51.058;17.040;2022-12-10T06:32:47;99203.25;;;2.41;77.61
63351;BME280;64988;51.058;17.040;2022-12-10T06:38:40;99204.09;;;2.56;76.80
63351;BME280;64988;51.058;17.040;2022-12-10T06:44:33;99211.06;;;2.30;77.55
63351;BME280;64988;51.058;17.040;2022-12-10T06:50:26;99210.19;;;2.30;78.03
63351;BME280;64988;51.058;17.040;2022-12-10T06:56:18;99220.28;;;2.39;77.08
63351;BME280;64988;51.058;17.040;2022-12-10T07:02:11;99229.63;;;2.32;77.34
63351;BME280;64988;51.058;17.040;2022-12-10T07:08:04;99235.22;;;2.41;76.99
63351;BME280;64988;51.058;17.040;2022-12-10T07:13:58;99245.88;;;2.41;76.45
63351;BME280;64988;51.058;17.040;2022-12-10T07:19:51;99245.59;;;2.32;76.86
63351;BME280;64988;51.058;17.040;2022-12-10T07:25:44;99244.81;;;2.30;77.19
63351;BME280;64988;51.058;17.040;2022-12-10T07:31:37;99242.16;;;2.44;76.53
63351;BME280;64988;51.058;17.040;2022-12-10T07:37:30;99242.72;;;2.49;76.72
63351;BME280;64988;51.058;17.040;2022-12-10T07:43:23;99238.47;;;2.32;76.92
63351;BME280;64988;51.058;17.040;2022-12-10T07:49:17;99241.88;;;2.34;77.10
63351;BME280;64988;51.058;17.040;2022-12-10T07:55:10;99254.13;;;2.37;76.96
63351;BME280;64988;51.058;17.040;2022-12-10T08:01:08;99270.69;;;2.42;77.03
63351;BME280;64988;51.058;17.040;2022-12-10T08:07:02;99272.78;;;2.51;77.00
63351;BME280;64988;51.058;17.040;2022-12-10T08:12:55;99263.25;;;2.47;76.67
63351;BME280;64988;51.058;17.040;2022-12-10T08:18:47;99266.03;;;2.45;76.84
63351;BME280;64988;51.058;17.040;2022-12-10T08:24:40;99273.81;;;2.62;77.04
63351;BME280;64988;51.058;17.040;2022-12-10T08:30:32;99275.44;;;2.51;77.19
63351;BME280;64988;51.058;17.040;2022-12-10T08:36:25;99279.63;;;2.55;76.91
63351;BME280;64988;51.058;17.040;2022-12-10T08:42:18;99279.44;;;2.58;76.55
63351;BME280;64988;51.058;17.040;2022-12-10T08:48:15;99282.38;;;2.68;76.60
63351;BME280;64988;51.058;17.040;2022-12-10T08:54:08;99286.38;;;2.60;77.37
63351;BME280;64988;51.058;17.040;2022-12-10T09:00:03;99287.22;;;2.47;77.35
63351;BME280;64988;51.058;17.040;2022-12-10T09:05:56;99279.34;;;2.45;78.03
63351;BME280;64988;51.058;17.040;2022-12-10T09:11:49;99282.19;;;2.56;77.53
63351;BME280;64988;51.058;17.040;2022-12-10T09:17:42;99284.56;;;2.61;77.80
63351;BME280;64988;51.058;17.040;2022-12-10T09:23:35;99282.66;;;2.77;77.36
63351;BME280;64988;51.058;17.040;2022-12-10T09:29:29;99281.88;;;2.75;76.95
63351;BME280;64988;51.058;17.040;2022-12-10T09:35:27;99283.81;;;2.73;76.71
63351;BME280;64988;51.058;17.040;2022-12-10T09:41:42;99287.78;;;2.80;75.99
63351;BME280;64988;51.058;17.040;2022-12-10T09:53:39;99266.59;;;3.20;76.54
63351;BME280;64988;51.058;17.040;2022-12-10T09:59:44;99266.47;;;3.21;75.53
63351;BME280;64988;51.058;17.040;2022-12-10T10:05:42;99250.84;;;3.29;75.39
63351;BME280;64988;51.058;17.040;2022-12-10T10:11:37;99246.16;;;3.33;74.03
63351;BME280;64988;51.058;17.040;2022-12-10T10:17:35;99239.06;;;3.19;74.00
63351;BME280;64988;51.058;17.040;2022-12-10T10:23:28;99235.28;;;3.36;74.08
63351;BME280;64988;51.058;17.040;2022-12-10T10:29:22;99233.69;;;3.46;74.28
63351;BME280;64988;51.058;17.040;2022-12-10T10:41:20;99239.44;;;3.40;73.32
63351;BME280;64988;51.058;17.040;2022-12-10T10:47:33;99223.59;;;3.24;73.17
63351;BME280;64988;51.058;17.040;2022-12-10T10:53:48;99225.19;;;3.27;73.90
63351;BME280;64988;51.058;17.040;2022-12-10T10:59:42;99215.50;;;3.26;73.01
63351;BME280;64988;51.058;17.040;2022-12-10T11:05:36;99228.28;;;3.47;72.36
63351;BME280;64988;51.058;17.040;2022-12-10T11:11:35;99239.59;;;3.51;71.57
63351;BME280;64988;51.058;17.040;2022-12-10T11:17:28;99244.28;;;3.47;71.84
63351;BME280;64988;51.058;17.040;2022-12-10T11:23:27;99251.78;;;3.55;71.52
63351;BME280;64988;51.058;17.040;2022-12-10T11:29:24;99245.38;;;3.31;71.36
63351;BME280;64988;51.058;17.040;2022-12-10T11:35:30;99248.75;;;3.47;72.19
63351;BME280;64988;51.058;17.040;2022-12-10T11:41:52;99260.19;;;3.49;71.91
63351;BME280;64988;51.058;17.040;2022-12-10T12:00:00;99260.72;;;3.54;71.99
63351;BME280;64988;51.058;17.040;2022-12-10T12:12:46;99241.91;;;3.43;71.82
63351;BME280;64988;51.058;17.040;2022-12-10T12:18:55;99256.00;;;3.45;71.76
63351;BME280;64988;51.058;17.040;2022-12-10T12:24:54;99255.59;;;3.51;72.42
63351;BME280;64988;51.058;17.040;2022-12-10T12:30:56;99247.03;;;3.46;71.73
63351;BME280;64988;51.058;17.040;2022-12-10T12:36:51;99248.09;;;3.43;72.15
63351;BME280;64988;51.058;17.040;2022-12-10T12:42:52;99237.63;;;3.40;71.68
63351;BME280;64988;51.058;17.040;2022-12-10T12:49:48;99248.22;;;3.42;71.56
63351;BME280;64988;51.058;17.040;2022-12-10T13:07:35;99226.44;;;3.35;72.49
63351;BME280;64988;51.058;17.040;2022-12-10T13:13:31;99220.66;;;3.29;72.54
63351;BME280;64988;51.058;17.040;2022-12-10T13:19:26;99238.78;;;3.36;71.73
63351;BME280;64988;51.058;17.040;2022-12-10T13:25:19;99241.56;;;3.35;72.15
63351;BME280;64988;51.058;17.040;2022-12-10T13:43:29;99249.94;;;3.16;73.18
63351;BME280;64988;51.058;17.040;2022-12-10T13:49:52;99252.34;;;3.06;72.85
63351;BME280;64988;51.058;17.040;2022-12-10T14:07:52;99249.09;;;2.75;73.43
63351;BME280;64988;51.058;17.040;2022-12-10T14:13:54;99258.09;;;2.86;73.14
63351;BME280;64988;51.058;17.040;2022-12-10T14:19:53;99267.53;;;2.78;73.71
63351;BME280;64988;51.058;17.040;2022-12-10T14:25:47;99274.53;;;2.93;73.61
63351;BME280;64988;51.058;17.040;2022-12-10T14:31:44;99288.34;;;2.99;73.31
63351;BME280;64988;51.058;17.040;2022-12-10T14:37:42;99286.47;;;2.87;72.94
63351;BME280;64988;51.058;17.040;2022-12-10T14:43:38;99282.22;;;2.97;72.66
63351;BME280;64988;51.058;17.040;2022-12-10T14:49:39;99297.66;;;3.06;72.55
63351;BME280;64988;51.058;17.040;2022-12-10T14:55:35;99301.25;;;3.05;72.39
63351;BME280;64988;51.058;17.040;2022-12-10T15:01:29;99300.13;;;2.95;72.17
63351;BME280;64988;51.058;17.040;2022-12-10T15:07:25;99310.66;;;3.11;72.33
63351;BME280;64988;51.058;17.040;2022-12-10T15:13:32;99308.00;;;3.11;72.07
63351;BME280;64988;51.058;17.040;2022-12-10T15:25:27;99308.88;;;2.97;73.43
63351;BME280;64988;51.058;17.040;2022-12-10T15:37:24;99307.59;;;2.90;73.58
63351;BME280;64988;51.058;17.040;2022-12-10T15:43:29;99319.00;;;2.78;74.13
63351;BME280;64988;51.058;17.040;2022-12-10T15:49:21;99325.56;;;2.87;73.71
63351;BME280;64988;51.058;17.040;2022-12-10T15:55:14;99324.59;;;2.88;73.78
63351;BME280;64988;51.058;17.040;2022-12-10T16:01:13;99312.53;;;2.82;73.68
63351;BME280;64988;51.058;17.040;2022-12-10T16:07:07;99316.91;;;2.83;74.14
63351;BME280;64988;51.058;17.040;2022-12-10T16:13:05;99321.09;;;2.73;73.55
63351;BME280;64988;51.058;17.040;2022-12-10T16:18:58;99322.34;;;2.68;74.03
63351;BME280;64988;51.058;17.040;2022-12-10T16:24:51;99301.50;;;2.74;74.43
63351;BME280;64988;51.058;17.040;2022-12-10T16:30:55;99298.56;;;2.64;73.71
63351;BME280;64988;51.058;17.040;2022-12-10T16:37:02;99299.31;;;2.67;74.13
63351;BME280;64988;51.058;17.040;2022-12-10T16:42:55;99299.78;;;2.73;74.37
63351;BME280;64988;51.058;17.040;2022-12-10T16:48:48;99296.66;;;2.67;73.98
63351;BME280;64988;51.058;17.040;2022-12-10T16:54:42;99301.50;;;2.60;73.74
63351;BME280;64988;51.058;17.040;2022-12-10T17:00:34;99299.31;;;2.67;73.92
63351;BME280;64988;51.058;17.040;2022-12-10T17:06:27;99299.78;;;2.73;74.18
63351;BME280;64988;51.058;17.040;2022-12-10T17:12:20;99300.34;;;2.78;75.03
63351;BME280;64988;51.058;17.040;2022-12-10T17:18:15;99294.72;;;2.69;73.36
63351;BME280;64988;51.058;17.040;2022-12-10T17:24:07;99301.50;;;2.74;73.64
63351;BME280;64988;51.058;17.040;2022-12-10T17:30:01;99313.97;;;2.59;73.80
63351;BME280;64988;51.058;17.040;2022-12-10T17:35:54;99325.75;;;2.70;73.05
63351;BME280;64988;51.058;17.040;2022-12-10T17:41:47;99334.50;;;2.72;73.45
63351;BME280;64988;51.058;17.040;2022-12-10T17:47:40;99336.69;;;2.79;73.39
63351;BME280;64988;51.058;17.040;2022-12-10T17:53:33;99342.41;;;2.59;73.63
63351;BME280;64988;51.058;17.040;2022-12-10T17:59:26;99347.91;;;2.56;73.88
63351;BME280;64988;51.058;17.040;2022-12-10T18:05:19;99340.78;;;2.56;73.61
63351;BME280;64988;51.058;17.040;2022-12-10T18:11:14;99328.53;;;2.54;73.73
63351;BME280;64988;51.058;17.040;2022-12-10T18:17:11;99334.31;;;2.46;74.19
63351;BME280;64988;51.058;17.040;2022-12-10T18:23:07;99328.31;;;2.43;74.01
63351;BME280;64988;51.058;17.040;2022-12-10T18:29:02;99327.09;;;2.62;73.52
63351;BME280;64988;51.058;17.040;2022-12-10T18:34:55;99327.56;;;2.55;73.53
63351;BME280;64988;51.058;17.040;2022-12-10T18:40:48;99311.59;;;2.55;73.42
63351;BME280;64988;51.058;17.040;2022-12-10T18:46:40;99305.78;;;2.62;73.61
63351;BME280;64988;51.058;17.040;2022-12-10T18:52:33;99309.09;;;2.66;72.99
63351;BME280;64988;51.058;17.040;2022-12-10T18:58:25;99304.75;;;2.51;73.47
63351;BME280;64988;51.058;17.040;2022-12-10T19:04:18;99309.50;;;2.60;73.83
63351;BME280;64988;51.058;17.040;2022-12-10T19:10:17;99317.19;;;2.50;73.42
63351;BME280;64988;51.058;17.040;2022-12-10T19:16:12;99310.16;;;2.35;73.97
63351;BME280;64988;51.058;17.040;2022-12-10T19:22:05;99310.03;;;2.37;74.03
63351;BME280;64988;51.058;17.040;2022-12-10T19:27:57;99307.31;;;2.38;74.28
63351;BME280;64988;51.058;17.040;2022-12-10T19:33:50;99300.53;;;2.33;73.88
63351;BME280;64988;51.058;17.040;2022-12-10T19:39:43;99312.81;;;2.35;73.57
63351;BME280;64988;51.058;17.040;2022-12-10T19:45:35;99323.84;;;2.29;73.85
63351;BME280;64988;51.058;17.040;2022-12-10T19:51:28;99331.91;;;2.28;73.39
63351;BME280;64988;51.058;17.040;2022-12-10T19:57:21;99330.97;;;2.29;73.52
63351;BME280;64988;51.058;17.040;2022-12-10T20:03:14;99331.53;;;2.34;73.22
63351;BME280;64988;51.058;17.040;2022-12-10T20:09:16;99329.16;;;2.29;73.71
63351;BME280;64988;51.058;17.040;2022-12-10T20:15:12;99322.50;;;2.36;73.73
63351;BME280;64988;51.058;17.040;2022-12-10T20:21:05;99319.66;;;2.39;73.65
63351;BME280;64988;51.058;17.040;2022-12-10T20:26:58;99311.75;;;2.24;73.61
63351;BME280;64988;51.058;17.040;2022-12-10T20:32:51;99305.28;;;2.28;73.50
63351;BME280;64988;51.058;17.040;2022-12-10T20:38:44;99298.84;;;2.32;73.37
63351;BME280;64988;51.058;17.040;2022-12-10T20:44:36;99292.16;;;2.25;73.74
63351;BME280;64988;51.058;17.040;2022-12-10T20:50:29;99303.75;;;2.24;73.71
63351;BME280;64988;51.058;17.040;2022-12-10T20:56:24;99299.13;;;2.41;74.21
63351;BME280;64988;51.058;17.040;2022-12-10T21:02:16;99302.53;;;2.29;73.34
63351;BME280;64988;51.058;17.040;2022-12-10T21:08:10;99297.75;;;2.20;74.07
63351;BME280;64988;51.058;17.040;2022-12-10T21:14:03;99306.78;;;2.18;73.61
63351;BME280;64988;51.058;17.040;2022-12-10T21:20:14;99318.13;;;2.21;73.74
63351;BME280;64988;51.058;17.040;2022-12-10T21:26:08;99333.41;;;2.18;73.81
63351;BME280;64988;51.058;17.040;2022-12-10T21:32:01;99334.09;;;2.21;73.41
63351;BME280;64988;51.058;17.040;2022-12-10T21:37:54;99326.03;;;2.23;73.29
63351;BME280;64988;51.058;17.040;2022-12-10T21:43:49;99325.97;;;2.08;73.15
63351;BME280;64988;51.058;17.040;2022-12-10T21:49:44;99321.81;;;2.19;73.05
63351;BME280;64988;51.058;17.040;2022-12-10T21:55:39;99324.19;;;2.23;73.25
63351;BME280;64988;51.058;17.040;2022-12-10T22:01:36;99312.78;;;2.21;73.18
63351;BME280;64988;51.058;17.040;2022-12-10T22:07:30;99312.41;;;2.13;73.44
63351;BME280;64988;51.058;17.040;2022-12-10T22:13:22;99316.28;;;2.07;73.88
63351;BME280;64988;51.058;17.040;2022-12-10T22:19:15;99313.44;;;2.10;73.56
63351;BME280;64988;51.058;17.040;2022-12-10T22:25:07;99317.25;;;2.06;73.82
63351;BME280;64988;51.058;17.040;2022-12-10T22:31:00;99312.00;;;2.05;74.33
63351;BME280;64988;51.058;17.040;2022-12-10T22:36:57;99317.28;;;1.91;74.33
63351;BME280;64988;51.058;17.040;2022-12-10T22:42:50;99324.75;;;2.00;74.17
63351;BME280;64988;51.058;17.040;2022-12-10T22:49:02;99318.06;;;1.93;74.02
63351;BME280;64988;51.058;17.040;2022-12-10T22:54:57;99303.34;;;1.72;75.10
63351;BME280;64988;51.058;17.040;2022-12-10T23:00:49;99289.97;;;1.73;75.20
63351;BME280;64988;51.058;17.040;2022-12-10T23:06:41;99280.44;;;1.69;75.40
63351;BME280;64988;51.058;17.040;2022-12-10T23:12:34;99277.03;;;1.67;75.27
63351;BME280;64988;51.058;17.040;2022-12-10T23:18:46;99277.91;;;1.82;75.50
63351;BME280;64988;51.058;17.040;2022-12-10T23:24:42;99282.56;;;1.78;75.47
63351;BME280;64988;51.058;17.040;2022-12-10T23:30:34;99275.56;;;1.77;75.66
63351;BME280;64988;51.058;17.040;2022-12-10T23:36:27;99277.25;;;1.78;75.32
63351;BME280;64988;51.058;17.040;2022-12-10T23:42:19;99274.75;;;1.75;75.62
63351;BME280;64988;51.058;17.040;2022-12-10T23:48:11;99278.69;;;1.84;75.84
63351;BME280;64988;51.058;17.040;2022-12-10T23:54:04;99275.06;;;1.71;75.89
63351;BME280;64988;51.058;17.040;2022-12-10T23:59:57;99268.31;;;1.79;75.29
